Time;durP1;ratioP1;P1;durP2;ratioP2;P2;SDS_P1;SDS_P2;PMS_P1;PMS_P2;Temp;Humidity;BMP_temperature;BMP_pressure;BME280_temperature;BME280_humidity;BME280_pressure;Samples;Min_cycle;Max_cycle;Signal;HPM_P1;HPM_P2
2023/01/02 00:07:40;;;;;;;31.5;22.8;;;;;;;6.5;90.2;99510;;;;
2023/01/02 00:17:40;;;;;;;31.5;22.8;;;;;;;6.6;90.2;99490;;;;
2023/01/02 00:28:40;;;;;;;36.8;25;;;;;;;6.5;89.5;99490;;;;
2023/01/02 00:39:40;;;;;;;36.8;25;;;;;;;6.3;88.5;99510;;;;
2023/01/02 00:49:40;;;;;;;36.8;25;;;;;;;6;87.7;99510;;;;
2023/01/02 01:00:40;;;;;;;30.3;20.3;;;;;;;5.9;88.1;99480;;;;
2023/01/02 01:10:40;;;;;;;30.3;20.3;;;;;;;5.9;88.5;99490;;;;
2023/01/02 01:20:40;;;;;;;26.1;18.6;;;;;;;5.8;88.6;99490;;;;
2023/01/02 01:31:40;;;;;;;26.1;18.6;;;;;;;5.2;86.8;99480;;;;
2023/01/02 01:42:40;;;;;;;26.1;18.6;;;;;;;4.8;86.6;99480;;;;
2023/01/02 01:52:40;;;;;;;29.1;18.8;;;;;;;4.6;86.8;99480;;;;
2023/01/02 02:03:40;;;;;;;29.1;18.8;;;;;;;4.6;88.3;99450;;;;
2023/01/02 02:14:40;;;;;;;29.1;18.8;;;;;;;4.7;89.4;99450;;;;
2023/01/02 02:24:40;;;;;;;26;15;;;;;;;4.8;90;99440;;;;
2023/01/02 02:34:40;;;;;;;26;15;;;;;;;4.8;90.4;99450;;;;
2023/01/02 02:44:40;;;;;;;26;15;;;;;;;4.8;90.6;99450;;;;
2023/01/02 02:55:40;;;;;;;26.6;16.2;;;;;;;4.8;90.6;99430;;;;
2023/01/02 03:05:40;;;;;;;;;;;;;;;;;;;;;
2023/01/02 03:15:40;;;;;;;26.6;16.2;;;;;;;4.8;90.5;99420;;;;
2023/01/02 03:26:40;;;;;;;21.3;14.4;;;;;;;4.7;90.3;99410;;;;
2023/01/02 03:37:40;;;;;;;21.3;14.4;;;;;;;4.7;90.1;99420;;;;
2023/01/02 03:48:40;;;;;;;21.3;14.4;;;;;;;4.1;88.6;99410;;;;
2023/01/02 03:58:40;;;;;;;28.6;16;;;;;;;3.9;88;99410;;;;
2023/01/02 04:09:40;;;;;;;28.6;16;;;;;;;3.8;88;99420;;;;
2023/01/02 04:20:40;;;;;;;32.1;18.3;;;;;;;3.4;87.4;99420;;;;
2023/01/02 04:31:40;;;;;;;32.1;18.3;;;;;;;3.3;87.7;99420;;;;
2023/01/02 04:41:41;;;;;;;32.1;18.3;;;;;;;3.2;88.2;99410;;;;
2023/01/02 04:52:40;;;;;;;27.1;17.3;;;;;;;3.2;88.6;99390;;;;
2023/01/02 05:02:40;;;;;;;27.1;17.3;;;;;;;3.3;89;99380;;;;
2023/01/02 05:13:40;;;;;;;27.1;17.3;;;;;;;3.2;88.9;99380;;;;
2023/01/02 05:23:48;;;;;;;26.7;18.3;;;;;;;2.8;88.5;99360;;;;
2023/01/02 05:34:40;;;;;;;26.7;18.3;;;;;;;2.8;88.8;99360;;;;
2023/01/02 05:44:40;;;;;;;26.7;18.3;;;;;;;2.5;88.4;99350;;;;
2023/01/02 05:54:42;;;;;;;28.8;19.3;;;;;;;2.2;88.7;99350;;;;
2023/01/02 06:05:40;;;;;;;28.8;19.3;;;;;;;2.4;89.8;99350;;;;
2023/01/02 06:15:40;;;;;;;28.8;19.3;;;;;;;2.5;90.7;99340;;;;
2023/01/02 06:26:42;;;;;;;29.3;17.3;;;;;;;2.6;91;99340;;;;
2023/01/02 06:36:40;;;;;;;29.3;17.3;;;;;;;2.6;90.9;99340;;;;
2023/01/02 06:47:40;;;;;;;29.3;17.3;;;;;;;2.7;90.7;99350;;;;
2023/01/02 06:58:40;;;;;;;24;16;;;;;;;2.8;90.5;99360;;;;
2023/01/02 07:09:40;;;;;;;24;16;;;;;;;2.8;90.1;99380;;;;
2023/01/02 07:19:41;;;;;;;29.3;18.3;;;;;;;3;90.1;99390;;;;
2023/01/02 07:30:40;;;;;;;29.3;18.3;;;;;;;3.3;91;99380;;;;
2023/01/02 07:40:40;;;;;;;29.3;18.3;;;;;;;3.7;91.9;99380;;;;
2023/01/02 07:51:40;;;;;;;33;22.1;;;;;;;4.3;92.7;99370;;;;
2023/01/02 08:01:40;;;;;;;33;22.1;;;;;;;4.7;93;99370;;;;
2023/01/02 08:12:40;;;;;;;33;22.1;;;;;;;5.3;93.2;99360;;;;
2023/01/02 08:23:40;;;;;;;36.4;27.9;;;;;;;5.8;93.3;99370;;;;
2023/01/02 08:33:40;;;;;;;36.4;27.9;;;;;;;6.1;93.2;99360;;;;
2023/01/02 08:43:40;;;;;;;36.4;27.9;;;;;;;6.3;92.7;99360;;;;
2023/01/02 08:54:41;;;;;;;46.4;34.8;;;;;;;6.2;89.4;99370;;;;
2023/01/02 09:05:40;;;;;;;46.4;34.8;;;;;;;6.2;88.1;99360;;;;
2023/01/02 09:15:40;;;;;;;46.4;34.8;;;;;;;6.4;87.5;99340;;;;
2023/01/02 09:25:40;;;;;;;43.2;34.2;;;;;;;6.7;87.4;99320;;;;
2023/01/02 09:36:40;;;;;;;43.2;34.2;;;;;;;6.8;87.3;99310;;;;
2023/01/02 09:46:40;;;;;;;43.2;34.2;;;;;;;7.2;87;99310;;;;
2023/01/02 09:56:40;;;;;;;46.8;37.8;;;;;;;7.4;86.4;99290;;;;
2023/01/02 10:07:41;;;;;;;46.8;37.8;;;;;;;7.9;85.6;99280;;;;
2023/01/02 10:17:41;;;;;;;46.8;37.8;;;;;;;8.5;85.2;99270;;;;
2023/01/02 10:28:41;;;;;;;54.7;44.1;;;;;;;9;84.1;99260;;;;
2023/01/02 10:39:40;;;;;;;54.7;44.1;;;;;;;9.4;83.6;99240;;;;
2023/01/02 10:49:40;;;;;;;;;;;;;;;;;;;;;
2023/01/02 11:00:40;;;;;;;43.3;36.5;;;;;;;10.3;81.4;99200;;;;
2023/01/02 11:10:40;;;;;;;43.3;36.5;;;;;;;10.7;80.7;99200;;;;
2023/01/02 11:20:41;;;;;;;43.6;34.5;;;;;;;11;79.5;99190;;;;
2023/01/02 11:30:41;;;;;;;43.6;34.5;;;;;;;11.2;79;99170;;;;
2023/01/02 11:52:41;;;;;;;40.2;31.4;;;;;;;12;77;99150;;;;
2023/01/02 12:03:41;;;;;;;40.2;31.4;;;;;;;12.3;75.3;99130;;;;
2023/01/02 12:13:40;;;;;;;40.2;31.4;;;;;;;12.3;74.6;99130;;;;
2023/01/02 12:23:41;;;;;;;41.4;30.6;;;;;;;12.6;74.3;99130;;;;
2023/01/02 12:33:41;;;;;;;41.4;30.6;;;;;;;12.6;73;99110;;;;
2023/01/02 12:44:41;;;;;;;41.4;30.6;;;;;;;12.8;72.5;99120;;;;
2023/01/02 12:55:41;;;;;;;29.6;25.7;;;;;;;12.7;71.8;99120;;;;
2023/01/02 13:05:41;;;;;;;29.6;25.7;;;;;;;12.5;71.9;99120;;;;
2023/01/02 13:16:41;;;;;;;29.6;25.7;;;;;;;12.3;72.6;99140;;;;
2023/01/02 13:26:41;;;;;;;38.1;30.2;;;;;;;12;73.4;99150;;;;
2023/01/02 13:37:41;;;;;;;38.1;30.2;;;;;;;11.8;74.1;99150;;;;
2023/01/02 13:48:41;;;;;;;38.1;30.2;;;;;;;11.3;75.4;99140;;;;
2023/01/02 13:59:41;;;;;;;40.5;33.4;;;;;;;11;76.4;99150;;;;
2023/01/02 14:09:41;;;;;;;40.5;33.4;;;;;;;10.7;76.2;99140;;;;
2023/01/02 14:19:42;;;;;;;36.8;32.4;;;;;;;10.2;76.5;99150;;;;
2023/01/02 14:30:41;;;;;;;36.8;32.4;;;;;;;9.8;77.6;99170;;;;
2023/01/02 14:40:41;;;;;;;36.8;32.4;;;;;;;9.5;78.5;99160;;;;
2023/01/02 14:51:41;;;;;;;32.4;27.8;;;;;;;9.3;79.6;99140;;;;
2023/01/02 15:01:41;;;;;;;32.4;27.8;;;;;;;9;79.7;99160;;;;
2023/01/02 15:13:12;;;;;;;32.4;27.8;;;;;;;8.7;79.8;99170;;;;
2023/01/02 15:22:42;;;;;;;26.4;22.1;;;;;;;8.4;81;99180;;;;
2023/01/02 15:33:41;;;;;;;26.4;22.1;;;;;;;8.4;81.8;99180;;;;
2023/01/02 15:45:13;;;;;;;26.4;22.1;;;;;;;8.6;82.9;99180;;;;
2023/01/02 15:50:29;;;;;;;39.8;31.1;;;;;;;8.7;82.6;99190;;;;
2023/01/02 16:00:28;;;;;;;39.8;31.1;;;;;;;8.7;82.6;99190;;;;
2023/01/02 16:11:28;;;;;;;39.8;31.1;;;;;;;8.9;82.5;99200;;;;
2023/01/02 16:21:28;;;;;;;32.1;27.8;;;;;;;8.9;82;99210;;;;
2023/01/02 16:31:28;;;;;;;32.1;27.8;;;;;;;8.9;82.1;99210;;;;
2023/01/02 16:41:35;;;;;;;32.1;27.8;;;;;;;9;82.5;99200;;;;
2023/01/02 16:52:28;;;;;;;33.2;28.7;;;;;;;8.9;81.8;99200;;;;
2023/01/02 17:03:29;;;;;;;33.2;28.7;;;;;;;8.7;82.3;99200;;;;
2023/01/02 17:14:28;;;;;;;33.2;28.7;;;;;;;8.5;82.5;99190;;;;
2023/01/02 17:25:29;;;;;;;31;27;;;;;;;8.7;83.6;99190;;;;
2023/01/02 17:35:29;;;;;;;31;27;;;;;;;8.5;82.9;99200;;;;
2023/01/02 17:46:29;;;;;;;31;27;;;;;;;8.1;82.1;99200;;;;
2023/01/02 17:56:28;;;;;;;40.2;32.5;;;;;;;7.5;81.5;99190;;;;
2023/01/02 18:06:29;;;;;;;40.2;32.5;;;;;;;7;81.9;99190;;;;
2023/01/02 18:17:29;;;;;;;40.2;32.5;;;;;;;6.7;82.8;99200;;;;
2023/01/02 18:27:29;;;;;;;42.1;32.4;;;;;;;6.3;82.8;99200;;;;
2023/01/02 18:37:29;;;;;;;42.1;32.4;;;;;;;6;83.7;99200;;;;
2023/01/02 18:47:28;;;;;;;42.1;32.4;;;;;;;6.1;86.3;99210;;;;
2023/01/02 18:57:29;;;;;;;48.3;38.1;;;;;;;6.4;89;99210;;;;
2023/01/02 19:08:29;;;;;;;48.3;38.1;;;;;;;6.6;90.1;99240;;;;
2023/01/02 19:19:28;;;;;;;65.7;51.1;;;;;;;6.7;90.8;99240;;;;
2023/01/02 19:29:28;;;;;;;65.7;51.1;;;;;;;6.7;90.9;99250;;;;
2023/01/02 19:39:28;;;;;;;65.7;51.1;;;;;;;6.8;91.2;99240;;;;
2023/01/02 19:50:29;;;;;;;58.1;45;;;;;;;6.8;91.4;99240;;;;
2023/01/02 20:01:29;;;;;;;58.1;45;;;;;;;6.9;91.6;99230;;;;
2023/01/02 20:12:29;;;;;;;58.1;45;;;;;;;6.8;91.4;99240;;;;
2023/01/02 20:22:29;;;;;;;47.8;38.3;;;;;;;6.7;91.3;99250;;;;
2023/01/02 20:32:29;;;;;;;47.8;38.3;;;;;;;6.6;91.2;99250;;;;
2023/01/02 20:43:29;;;;;;;47.8;38.3;;;;;;;6.5;91.2;99250;;;;
2023/01/02 20:53:29;;;;;;;48;38.9;;;;;;;6.4;91.5;99260;;;;
2023/01/02 21:04:29;;;;;;;48;38.9;;;;;;;6.4;92.1;99280;;;;
2023/01/02 21:14:29;;;;;;;48;38.9;;;;;;;6.3;92.3;99280;;;;
2023/01/02 21:25:30;;;;;;;51.5;38;;;;;;;6.2;92.4;99290;;;;
2023/01/02 21:35:29;;;;;;;51.5;38;;;;;;;6.2;92.6;99300;;;;
2023/01/02 21:45:29;;;;;;;51.5;38;;;;;;;6.1;92.8;99310;;;;
2023/01/02 21:56:29;;;;;;;50.8;34;;;;;;;6.2;92.9;99340;;;;
2023/01/02 22:06:32;;;;;;;50.8;34;;;;;;;6.1;92.8;99350;;;;
2023/01/02 22:16:29;;;;;;;50.8;34;;;;;;;6;92.7;99360;;;;
2023/01/02 22:27:29;;;;;;;42.3;30.9;;;;;;;6.1;93.2;99360;;;;
2023/01/02 22:38:29;;;;;;;42.3;30.9;;;;;;;6.2;93.2;99360;;;;
2023/01/02 22:49:29;;;;;;;38.4;26.8;;;;;;;6.1;93;99360;;;;
2023/01/02 22:59:29;;;;;;;38.4;26.8;;;;;;;6.1;92.8;99360;;;;
2023/01/02 23:10:29;;;;;;;38.4;26.8;;;;;;;6.1;92.8;99370;;;;
2023/01/02 23:21:29;;;;;;;30.4;23.9;;;;;;;5.9;92.6;99380;;;;
2023/01/02 23:32:29;;;;;;;30.4;23.9;;;;;;;5.9;92.5;99370;;;;
2023/01/02 23:42:29;;;;;;;30.4;23.9;;;;;;;5.8;92.5;99400;;;;
2023/01/02 23:52:29;;;;;;;35.2;25.3;;;;;;;5.8;92.8;99400;;;;
